Flight Track Log - Related Links

Times and Time Zones

All times are in EDT time to prevent confusion due to time zone crossing. See the TAM3870 flight status page for this flight to view local times or setup timezone preferences in your user account.

Time Position Orientation Groundspeed Altitude Reporting Facility
EDT Latitude Longitude Course Direction KTS MPH feet Rate Location/Type
Mon 12:44:00 PM -3.2919 -48.7929 North  Level Estimated
Mon 12:45:00 PM -3.2120 -48.7796 North  Level Estimated
Mon 12:46:00 PM -3.1321 -48.7664 North  Level Estimated
Mon 12:47:00 PM -3.0522 -48.7532 North  Level Estimated
Mon 12:48:00 PM -2.9723 -48.7399 North  Level Estimated
Mon 12:49:00 PM -2.8925 -48.7267 North  Level Estimated
Mon 12:50:00 PM -2.8126 -48.7135 North  Level Estimated
Mon 12:51:00 PM -2.7327 -48.7002 North  Level Estimated
Mon 12:52:00 PM -2.6528 -48.6870 North  Level Estimated
Mon 12:53:00 PM -2.5729 -48.6738 North  Level Estimated
Mon 12:54:00 PM -2.4931 -48.6605 North  Level Estimated
Mon 12:55:00 PM -2.4132 -48.6473 North  Level Estimated
Mon 12:56:00 PM -2.3333 -48.6341 North  Level Estimated
Mon 12:57:00 PM -2.2534 -48.6209 North  Level Estimated
Mon 12:58:00 PM -2.1735 -48.6077 North  Level Estimated
Mon 12:59:00 PM -2.0937 -48.5945 North  Level Estimated
Mon 01:00:00 PM -2.0138 -48.5812 North  Level Estimated
Mon 01:01:00 PM -1.9339 -48.5680 North  Level Estimated
Mon 01:02:00 PM -1.8540 -48.5548 North  Level Estimated
Mon 01:03:00 PM -1.7742 -48.5416 North  Level Estimated
Mon 01:04:00 PM -1.6943 -48.5284 North  Level Estimated
Mon 01:05:00 PM -1.6144 -48.5152 North  Level Estimated
Mon 01:06:00 PM -1.5345 -48.5020 North  Level Estimated
Mon 01:07:00 PM -1.4546 -48.4888 North  Level Estimated
Mon 01:08:00 PM -1.3793 -48.4763 North  Level Estimated
Mon 01:09:00 PM -1.3793 -48.4763 270° West  Level Estimated
Mon 01:10:00 PM -1.3793 -48.4763 270° West  Level Estimated
Mon 01:11:00 PM -1.3793 -48.4763 270° West  Level Estimated
Mon 01:12:00 PM -1.3793 -48.4763 270° West  Level Estimated
Mon 01:13:00 PM -1.3793 -48.4763 270° West  Level Estimated
Mon 01:14:00 PM -1.3793 -48.4763 270° West  Level Estimated
Mon 01:15:00 PM -1.3793 -48.4763 270° West  Level Estimated
Mon 01:16:00 PM -1.3793 -48.4763 270° West  Level Estimated
Mon 01:17:00 PM -1.3793 -48.4763 270° West  Level Estimated
Mon 01:18:00 PM -1.3793 -48.4763 270° West  Level Estimated
Mon 01:19:00 PM -1.3793 -48.4763 270° West  Level Estimated
Mon 01:20:00 PM -1.3793 -48.4763 270° West  Level Estimated
Mon 01:21:00 PM -1.3793 -48.4763 270° West  Level Estimated
Mon 01:22:00 PM -1.3793 -48.4763 270° West  Level Estimated
Mon 01:23:00 PM -1.3793 -48.4763 270° West  Level Estimated
Mon 01:24:00 PM -1.3793 -48.4763 270° West  Level Estimated

Login

Don't have an account? Register now (free) for customized features, flight alerts, and more!